createdAt,value
2022-10-20T05:29:33.624Z,19.85
2022-10-20T05:32:01.115Z,20.23
2022-10-20T05:34:28.827Z,20.38
2022-10-20T05:36:56.386Z,20.36
2022-10-20T05:39:24.051Z,20.29
2022-10-20T05:41:51.525Z,20.22
2022-10-20T05:44:18.976Z,20.15
2022-10-20T05:46:47.852Z,20.23
2022-10-20T05:49:17.475Z,20.25
2022-10-20T05:51:46.819Z,20.36
2022-10-20T05:54:15.086Z,20.43
2022-10-20T05:56:42.814Z,20.49
2022-10-20T05:59:11.535Z,20.51
2022-10-20T06:01:47.621Z,20.53
2022-10-20T06:04:18.480Z,20.56
2022-10-20T06:06:46.092Z,20.59
2022-10-20T06:09:13.584Z,20.59
2022-10-20T06:11:41.363Z,20.62
2022-10-20T06:14:09.810Z,20.65
2022-10-20T06:16:37.522Z,20.63
2022-10-20T06:19:06.587Z,20.68
2022-10-20T06:21:36.876Z,20.71
2022-10-20T06:24:06.389Z,20.74
2022-10-20T06:26:36.516Z,20.75
2022-10-20T06:29:06.120Z,20.77
2022-10-20T06:31:35.350Z,20.80
2022-10-20T06:34:05.574Z,20.78
2022-10-20T06:36:37.174Z,20.79
2022-10-20T06:39:06.490Z,20.79
2022-10-20T06:41:34.804Z,20.79
2022-10-20T06:44:02.305Z,20.81
2022-10-20T06:46:31.544Z,20.92
2022-10-20T06:49:00.778Z,20.97
2022-10-20T06:51:28.257Z,20.99
2022-10-20T06:53:57.278Z,20.99
2022-10-20T06:56:26.935Z,21.00
2022-10-20T06:58:56.129Z,21.02
2022-10-20T07:01:24.837Z,21.00
2022-10-20T07:03:54.292Z,21.03
2022-10-20T07:06:23.706Z,21.05
2022-10-20T07:08:53.549Z,21.00
2022-10-20T07:11:24.347Z,20.96
2022-10-20T07:13:51.859Z,21.07
2022-10-20T07:16:21.987Z,21.14
2022-10-20T07:18:49.823Z,21.13
2022-10-20T07:21:19.215Z,21.03
2022-10-20T07:23:48.112Z,20.95
2022-10-20T07:26:18.096Z,20.89
2022-10-20T07:28:54.634Z,20.85
2022-10-20T07:31:25.961Z,20.85
2022-10-20T07:34:06.716Z,20.87
2022-10-20T07:36:43.098Z,20.98
2022-10-20T07:39:12.900Z,21.01
2022-10-20T07:41:43.836Z,21.03
2022-10-20T07:44:12.642Z,21.07
2022-10-20T07:46:40.100Z,21.12
2022-10-20T07:49:38.237Z,21.12
2022-10-20T07:51:55.081Z,21.11
2022-10-20T07:54:22.620Z,21.12
2022-10-20T07:56:50.169Z,21.16
2022-10-20T07:59:18.992Z,21.22
2022-10-20T08:01:46.660Z,21.19
2022-10-20T08:04:14.321Z,21.20
2022-10-20T08:06:41.833Z,21.23
2022-10-20T08:09:09.304Z,21.18
2022-10-20T08:11:36.964Z,21.18
2022-10-20T08:14:04.608Z,21.17
2022-10-20T08:16:39.546Z,21.20
2022-10-20T08:19:14.543Z,21.24
2022-10-20T08:21:42.040Z,21.30
2022-10-20T08:24:09.579Z,21.33
2022-10-20T08:26:37.123Z,21.36
2022-10-20T08:29:04.694Z,21.35
2022-10-20T08:31:33.490Z,21.36
2022-10-20T08:34:01.043Z,21.39
2022-10-20T08:36:28.721Z,21.41
2022-10-20T08:38:56.350Z,21.42
2022-10-20T08:41:27.078Z,21.44
2022-10-20T08:43:58.407Z,21.44
2022-10-20T08:46:35.719Z,21.48
2022-10-20T08:49:06.401Z,21.50
2022-10-20T08:51:38.451Z,21.52
2022-10-20T08:54:12.146Z,21.52
2022-10-20T08:56:39.698Z,21.49
2022-10-20T08:59:24.768Z,21.50
2022-10-20T09:01:54.436Z,21.46
2022-10-20T09:04:24.418Z,21.49
2022-10-20T09:06:56.979Z,21.52
2022-10-20T09:09:26.200Z,21.53
2022-10-20T09:12:02.476Z,21.49
2022-10-20T09:14:33.436Z,21.50
2022-10-20T09:17:02.690Z,21.52
2022-10-20T09:19:30.680Z,21.55
2022-10-20T09:22:03.769Z,21.59
2022-10-20T09:24:32.715Z,21.58
2022-10-20T09:27:22.456Z,21.60
2022-10-20T09:29:49.973Z,21.63
2022-10-20T09:35:19.920Z,21.64
2022-10-20T09:37:53.186Z,21.62
2022-10-20T09:40:21.017Z,21.59
2022-10-20T09:42:53.761Z,21.62
2022-10-20T09:45:23.417Z,21.59
2022-10-20T09:47:55.401Z,21.58
2022-10-20T09:50:28.297Z,21.64
2022-10-20T09:52:57.174Z,21.69
2022-10-20T09:55:29.153Z,21.70
2022-10-20T09:57:58.921Z,21.74
2022-10-20T10:00:37.928Z,21.71
2022-10-20T10:03:19.765Z,21.78
2022-10-20T10:05:47.775Z,21.72
2022-10-20T10:08:15.993Z,21.69
2022-10-20T10:10:44.926Z,21.67
2022-10-20T10:13:26.986Z,21.48
2022-10-20T10:16:07.192Z,21.41
2022-10-20T10:18:38.353Z,21.41
2022-10-20T10:21:09.087Z,21.43
2022-10-20T10:23:41.057Z,21.44
2022-10-20T10:26:50.340Z,21.39
2022-10-20T10:29:25.139Z,21.38
2022-10-20T10:31:58.224Z,21.40
2022-10-20T10:34:35.891Z,21.39
2022-10-20T10:37:03.383Z,21.39
2022-10-20T10:39:34.900Z,21.39
2022-10-20T10:42:16.577Z,21.36
2022-10-20T10:44:56.233Z,21.34
2022-10-20T10:47:46.176Z,21.32
2022-10-20T10:50:30.580Z,21.46
2022-10-20T10:53:13.331Z,21.53
2022-10-20T10:55:49.235Z,21.61
2022-10-20T10:58:32.896Z,21.58
2022-10-20T11:01:08.081Z,21.38
2022-10-20T11:04:07.326Z,21.55
2022-10-20T11:06:42.414Z,21.64
2022-10-20T11:09:18.004Z,21.68
2022-10-20T11:12:00.716Z,21.81
2022-10-20T11:14:41.956Z,21.84
2022-10-20T11:17:24.711Z,21.83
2022-10-20T11:20:05.785Z,21.90
2022-10-20T11:22:42.071Z,21.93
2022-10-20T11:25:22.759Z,21.94
2022-10-20T11:27:51.176Z,21.90
2022-10-20T11:30:21.916Z,21.88
2022-10-20T11:32:54.440Z,21.89
2022-10-20T11:35:33.394Z,21.89
2022-10-20T11:38:15.941Z,21.88
2022-10-20T11:40:49.399Z,21.87
2022-10-20T11:43:23.149Z,21.86
2022-10-20T11:45:55.069Z,21.88
2022-10-20T11:48:28.952Z,21.91
2022-10-20T11:51:16.458Z,21.66
2022-10-20T11:54:01.996Z,21.51
2022-10-20T11:56:42.488Z,21.52
2022-10-20T11:59:41.617Z,21.48
2022-10-20T12:02:50.194Z,21.49
2022-10-20T12:05:40.789Z,21.47
2022-10-20T12:08:30.590Z,21.49
2022-10-20T12:11:06.741Z,21.48
2022-10-20T12:13:42.169Z,21.47
2022-10-20T12:16:09.751Z,21.43
2022-10-20T12:18:38.351Z,21.48
2022-10-20T12:21:07.941Z,21.51
2022-10-20T12:24:05.534Z,21.64
2022-10-20T12:27:08.669Z,21.61
2022-10-20T12:29:55.357Z,21.60
2022-10-20T12:32:37.814Z,21.51
2022-10-20T12:35:41.828Z,21.61
2022-10-20T12:38:18.697Z,21.51
2022-10-20T12:40:52.523Z,21.57
2022-10-20T12:43:32.901Z,21.61
2022-10-20T12:46:09.973Z,21.56
2022-10-20T12:48:44.427Z,21.89
2022-10-20T12:51:21.974Z,21.95
2022-10-20T12:53:56.886Z,21.78
2022-10-20T12:58:26.177Z,21.78
2022-10-20T13:02:52.828Z,21.55
2022-10-20T13:05:49.351Z,21.61
2022-10-20T13:11:49.225Z,13.77
2022-10-20T13:14:31.461Z,13.27
2022-10-20T13:17:07.321Z,13.37
2022-10-20T13:19:39.587Z,13.11
2022-10-20T13:22:43.015Z,13.32
2022-10-20T13:25:33.370Z,13.25
2022-10-20T13:28:07.016Z,13.31
2022-10-20T13:30:37.587Z,13.33
2022-10-20T13:33:44.527Z,13.18
2022-10-20T13:36:10.526Z,13.36
2022-10-20T13:38:46.150Z,13.47
2022-10-20T13:41:25.095Z,13.73
2022-10-20T13:44:03.905Z,13.28
2022-10-20T13:46:47.365Z,13.59
2022-10-20T13:49:33.577Z,13.29
2022-10-20T13:52:06.783Z,13.15
2022-10-20T13:54:38.580Z,13.14
2022-10-20T13:57:08.713Z,13.16
2022-10-20T13:59:39.521Z,13.07
2022-10-20T14:02:24.905Z,12.98
2022-10-20T14:05:03.177Z,13.08
2022-10-20T14:07:36.985Z,13.16
2022-10-20T14:10:05.718Z,13.07
2022-10-20T14:12:34.428Z,12.76
2022-10-20T14:15:04.850Z,12.86
2022-10-20T14:17:35.348Z,13.02
2022-10-20T14:20:10.390Z,12.97
2022-10-20T14:22:45.676Z,12.76
2022-10-20T14:25:13.896Z,12.85
2022-10-20T14:27:41.524Z,12.93
2022-10-20T14:30:15.468Z,12.90
2022-10-20T14:32:46.243Z,12.82
2022-10-20T14:35:25.912Z,12.90
2022-10-20T14:37:56.944Z,12.87
2022-10-20T14:40:28.747Z,12.84
2022-10-20T14:43:08.137Z,12.78
2022-10-20T14:45:35.795Z,12.81
2022-10-20T14:48:09.749Z,12.79
2022-10-20T14:50:40.837Z,12.88
2022-10-20T14:53:18.020Z,12.74
2022-10-20T14:55:45.552Z,12.70
2022-10-20T14:58:31.717Z,12.59
2022-10-20T15:01:17.052Z,12.56
2022-10-20T15:03:46.114Z,12.60
2022-10-20T15:06:17.954Z,12.54
2022-10-20T15:08:54.675Z,12.49
2022-10-20T15:11:23.511Z,12.58
2022-10-20T15:13:53.716Z,12.50
2022-10-20T15:16:40.441Z,12.52
2022-10-20T15:19:37.621Z,12.48
2022-10-20T15:24:41.267Z,12.25
2022-10-20T15:27:15.620Z,12.21
2022-10-20T15:29:49.709Z,12.18
2022-10-20T15:32:17.355Z,12.11
2022-10-20T15:34:46.242Z,12.05
2022-10-20T15:37:13.713Z,12.13
2022-10-20T15:39:41.193Z,12.12
2022-10-20T15:42:11.900Z,12.06
2022-10-20T15:44:39.492Z,12.10
2022-10-20T15:47:06.935Z,12.11
2022-10-20T15:49:34.451Z,12.01
2022-10-20T15:52:03.320Z,12.01
2022-10-20T15:54:30.843Z,12.01
2022-10-20T15:56:58.292Z,12.03
2022-10-20T15:59:26.511Z,11.97
2022-10-20T16:01:54.055Z,11.92
2022-10-20T16:04:23.581Z,11.91
2022-10-20T16:06:57.537Z,11.97
2022-10-20T16:09:26.736Z,11.95
2022-10-20T16:11:54.247Z,11.94
2022-10-20T16:14:21.692Z,11.95
2022-10-20T16:16:49.352Z,11.91
2022-10-20T16:19:16.841Z,11.93
2022-10-20T16:21:44.404Z,11.93
2022-10-20T16:24:12.103Z,11.97
2022-10-20T16:26:40.936Z,11.99
2022-10-20T16:29:08.432Z,12.02
2022-10-20T16:31:36.260Z,11.97
2022-10-20T16:34:03.779Z,11.96
2022-10-20T16:36:31.245Z,11.95
2022-10-20T16:39:00.683Z,11.99
2022-10-20T16:41:28.239Z,11.94
2022-10-20T16:44:00.214Z,11.97
2022-10-20T16:46:28.582Z,11.89
2022-10-20T16:48:57.094Z,11.88
2022-10-20T16:51:24.415Z,11.89
2022-10-20T16:53:51.934Z,11.90
2022-10-20T16:56:21.044Z,11.85
2022-10-20T16:58:49.265Z,11.85
2022-10-20T17:01:20.182Z,11.86
2022-10-20T17:03:50.041Z,11.83
2022-10-20T17:06:19.577Z,11.81
2022-10-20T17:08:47.275Z,11.76
2022-10-20T17:11:17.676Z,11.75
2022-10-20T17:13:45.439Z,11.61
2022-10-20T17:16:22.423Z,11.76
2022-10-20T17:18:57.603Z,11.71
2022-10-20T17:21:25.656Z,11.69
2022-10-20T17:23:53.232Z,11.72
2022-10-20T17:26:22.656Z,11.69
2022-10-20T17:28:50.463Z,11.58
2022-10-20T17:31:18.990Z,11.65
2022-10-20T17:33:47.080Z,11.66
2022-10-20T17:36:16.096Z,11.71
2022-10-20T17:38:44.004Z,11.48
2022-10-20T17:41:16.557Z,11.45
2022-10-20T17:43:44.176Z,11.58
2022-10-20T17:46:13.337Z,11.63
2022-10-20T17:48:41.544Z,11.69
2022-10-20T17:51:11.797Z,11.44
2022-10-20T17:53:43.445Z,11.39
2022-10-20T17:56:14.011Z,11.53
2022-10-20T17:58:43.933Z,11.53
2022-10-20T18:01:13.333Z,11.58
2022-10-20T18:03:41.629Z,11.45
2022-10-20T18:06:11.000Z,11.56
2022-10-20T18:08:40.441Z,11.57
2022-10-20T18:11:12.089Z,11.53
2022-10-20T18:13:40.362Z,11.52
2022-10-20T18:16:09.700Z,11.58
2022-10-20T18:18:37.746Z,11.52
2022-10-20T18:21:06.166Z,11.57
2022-10-20T18:23:36.665Z,11.54
2022-10-20T18:26:10.880Z,11.61
2022-10-20T18:28:41.092Z,11.59
2022-10-20T18:31:13.649Z,11.63
2022-10-20T18:33:42.448Z,11.63
2022-10-20T18:36:12.024Z,11.59
2022-10-20T18:38:41.692Z,11.64
2022-10-20T18:41:13.663Z,11.44
2022-10-20T18:43:46.056Z,11.47
2022-10-20T18:46:14.944Z,11.43
2022-10-20T18:48:43.179Z,11.40
2022-10-20T18:51:13.632Z,11.20
2022-10-20T18:53:42.424Z,11.42
2022-10-20T18:56:14.183Z,11.39
2022-10-20T18:58:44.807Z,11.37
2022-10-20T19:01:15.572Z,11.44
2022-10-20T19:03:46.174Z,11.53
2022-10-20T19:06:15.916Z,11.50
2022-10-20T19:08:43.497Z,11.44
2022-10-20T19:11:14.082Z,11.58
2022-10-20T19:13:41.522Z,11.50
2022-10-20T19:16:11.435Z,11.44
2022-10-20T19:18:40.413Z,11.50
2022-10-20T19:21:09.054Z,11.47
2022-10-20T19:23:39.111Z,11.51
2022-10-20T19:26:09.465Z,11.50
2022-10-20T19:28:40.787Z,11.53
2022-10-20T19:31:20.927Z,11.53
2022-10-20T19:33:50.220Z,11.29
2022-10-20T19:36:17.734Z,11.37
2022-10-20T19:38:45.655Z,11.47
2022-10-20T19:41:13.142Z,11.51
2022-10-20T19:43:43.327Z,11.56
2022-10-20T19:46:14.211Z,11.55
2022-10-20T19:48:42.566Z,11.56
2022-10-20T19:51:10.388Z,11.60
2022-10-20T19:53:39.036Z,11.59
2022-10-20T19:56:07.876Z,11.60
2022-10-20T19:58:36.640Z,11.61
2022-10-20T20:01:06.674Z,11.50
2022-10-20T20:03:34.729Z,11.56
2022-10-20T20:06:04.163Z,11.44
2022-10-20T20:08:31.855Z,11.43
2022-10-20T20:10:59.789Z,11.47
2022-10-20T20:13:27.284Z,11.50
2022-10-20T20:15:54.757Z,11.26
2022-10-20T20:18:23.555Z,11.34
2022-10-20T20:20:51.017Z,11.47
2022-10-20T20:23:25.920Z,11.54
2022-10-20T20:26:03.721Z,11.52
2022-10-20T20:28:31.793Z,11.39
2022-10-20T20:31:00.229Z,11.43
2022-10-20T20:33:29.215Z,11.50
2022-10-20T20:35:58.192Z,11.51
2022-10-20T20:38:25.956Z,11.32
2022-10-20T20:40:54.077Z,11.19
2022-10-20T20:43:21.626Z,11.41
2022-10-20T20:45:49.076Z,11.44
2022-10-20T20:48:16.868Z,11.20
2022-10-20T20:50:54.315Z,11.32
2022-10-20T20:53:22.421Z,11.32
2022-10-20T20:55:54.360Z,11.21
2022-10-20T20:58:21.824Z,11.25
2022-10-20T21:00:49.393Z,11.25
2022-10-20T21:03:19.764Z,11.16
2022-10-20T21:05:47.211Z,11.20
2022-10-20T21:08:16.188Z,11.21
2022-10-20T21:10:43.631Z,11.28
2022-10-20T21:13:11.099Z,11.36
2022-10-20T21:15:38.560Z,11.29
2022-10-20T21:18:06.191Z,11.13
2022-10-20T21:20:33.665Z,11.24
2022-10-20T21:23:01.135Z,11.25
2022-10-20T21:25:29.935Z,11.22
2022-10-20T21:27:57.380Z,11.33
2022-10-20T21:30:26.480Z,11.35
2022-10-20T21:32:53.984Z,11.23
2022-10-20T21:35:21.431Z,11.32
2022-10-20T21:37:48.904Z,10.96
2022-10-20T21:40:16.571Z,11.02
2022-10-20T21:42:45.368Z,11.05
2022-10-20T21:45:15.489Z,11.11
2022-10-20T21:47:45.745Z,11.02
2022-10-20T21:50:13.201Z,11.19
2022-10-20T21:52:40.669Z,11.07
2022-10-20T21:55:08.519Z,11.16
2022-10-20T21:57:36.485Z,11.19
2022-10-20T22:00:06.570Z,11.02
2022-10-20T22:02:34.073Z,11.12
2022-10-20T22:05:01.934Z,11.13
2022-10-20T22:07:29.722Z,11.17
2022-10-20T22:09:57.210Z,11.16
2022-10-20T22:12:24.739Z,11.19
2022-10-20T22:14:52.222Z,11.09
2022-10-20T22:17:21.948Z,10.98
2022-10-20T22:19:50.208Z,11.11
2022-10-20T22:22:17.765Z,11.21
2022-10-20T22:24:45.484Z,11.18
2022-10-20T22:27:25.047Z,11.05
2022-10-20T22:30:00.415Z,10.92
2022-10-20T22:32:29.216Z,10.96
2022-10-20T22:34:56.681Z,11.06
2022-10-20T22:37:24.279Z,11.11
2022-10-20T22:39:51.720Z,11.04
2022-10-20T22:42:21.318Z,11.07
2022-10-20T22:44:51.480Z,10.99
2022-10-20T22:47:19.005Z,10.97
2022-10-20T22:49:47.816Z,11.18
2022-10-20T22:52:15.288Z,11.18
2022-10-20T22:54:42.745Z,11.20
2022-10-20T22:57:10.224Z,11.25
2022-10-20T22:59:37.752Z,11.14
2022-10-20T23:02:05.236Z,11.11
2022-10-20T23:04:32.707Z,11.15
2022-10-20T23:09:34.448Z,11.18
2022-10-20T23:12:01.898Z,11.21
2022-10-20T23:14:29.345Z,11.07
2022-10-20T23:16:56.816Z,10.92
2022-10-20T23:19:24.288Z,11.13
2022-10-20T23:21:52.151Z,10.95
2022-10-20T23:24:20.959Z,10.89
2022-10-20T23:26:48.428Z,10.97
2022-10-20T23:29:15.904Z,11.10
2022-10-20T23:31:43.360Z,11.02
2022-10-20T23:34:10.831Z,10.79
2022-10-20T23:36:39.218Z,10.94
2022-10-20T23:39:06.827Z,11.13
2022-10-20T23:41:35.609Z,11.02
2022-10-20T23:44:03.092Z,11.04
2022-10-20T23:46:32.197Z,10.70
2022-10-20T23:49:00.061Z,10.80
2022-10-20T23:51:27.653Z,10.99
2022-10-20T23:53:55.383Z,10.90
2022-10-20T23:56:22.868Z,10.90
2022-10-20T23:58:51.720Z,11.06
